Time;durP1;ratioP1;P1;durP2;ratioP2;P2;SDS_P1;SDS_P2;PMS_P1;PMS_P2;Temp;Humidity;BMP_temperature;BMP_pressure;BME280_temperature;BME280_humidity;BME280_pressure;Samples;Min_cycle;Max_cycle;Signal;HPM_P1;HPM_P2
2022/01/14 00:01:22;;;;;;;21.80;7.60;;;;;;;2.83;69.11;100616.63;4306834;33;33748;-74
2022/01/14 00:03:51;;;;;;;17.37;6.82;;;;;;;2.94;69.19;100611.91;4319317;33;33582;-75
2022/01/14 00:06:18;;;;;;;19.75;8.45;;;;;;;3.37;66.83;100623.03;4316538;33;35380;-75
2022/01/14 00:08:46;;;;;;;11.57;5.87;;;;;;;3.42;67.61;100616.34;4314497;33;34600;-74
2022/01/14 00:11:16;;;;;;;16.08;6.50;;;;;;;3.74;67.10;100608.97;4309449;33;34540;-75
2022/01/14 00:13:58;;;;;;;12.88;6.20;;;;;;;3.34;68.67;100602.34;4318244;33;34703;-72
2022/01/14 00:16:26;;;;;;;12.05;6.78;;;;;;;3.28;68.99;100608.09;4319279;33;35911;-71
2022/01/14 00:18:54;;;;;;;12.32;5.47;;;;;;;3.08;70.04;100609.87;4319343;33;34457;-71
2022/01/14 00:21:22;;;;;;;30.25;9.15;;;;;;;2.97;70.71;100606.87;4319608;33;33795;-76
2022/01/14 00:24:05;;;;;;;17.25;7.18;;;;;;;3.45;69.33;100606.19;4318626;33;33958;-75
2022/01/14 00:34:47;;;;;;;17.30;6.65;;;;;;;3.34;69.21;100586.88;4306305;33;34300;-75
2022/01/14 00:37:17;;;;;;;16.15;6.40;;;;;;;3.73;67.51;100578.91;4314151;33;35086;-73
2022/01/14 00:39:46;;;;;;;16.73;7.62;;;;;;;3.15;69.81;100578.44;4291868;33;34775;-71
2022/01/14 00:42:14;;;;;;;18.08;7.05;;;;;;;2.80;71.11;100583.03;4291413;33;34678;-71
2022/01/14 00:44:42;;;;;;;18.27;7.35;;;;;;;3.31;69.32;100571.31;4291831;33;34566;-75
2022/01/14 00:47:10;;;;;;;20.85;6.82;;;;;;;2.93;70.50;100579.28;4307565;33;34927;-76
2022/01/14 00:49:43;;;;;;;13.98;6.57;;;;;;;3.26;68.71;100570.25;4306894;33;35166;-76
2022/01/14 00:52:11;;;;;;;15.27;6.57;;;;;;;3.44;68.41;100560.62;4315116;33;34395;-75
2022/01/14 00:54:39;;;;;;;12.65;5.15;;;;;;;3.28;68.66;100560.88;4303651;33;33864;-75
2022/01/14 00:59:37;;;;;;;24.25;6.07;;;;;;;2.91;69.83;100562.94;4304708;33;34640;-74
2022/01/14 01:02:06;;;;;;;21.67;7.97;;;;;;;3.03;69.49;100565.94;4303396;33;33911;-72
2022/01/14 01:04:38;;;;;;;16.58;6.18;;;;;;;2.51;71.19;100566.44;4319522;33;34727;-73
2022/01/14 01:07:07;;;;;;;16.02;6.90;;;;;;;3.30;68.56;100573.03;4315492;33;34696;-72
2022/01/14 01:09:37;;;;;;;23.27;8.05;;;;;;;3.18;69.31;100569.97;4305182;33;33692;-72
2022/01/14 01:15:16;;;;;;;14.40;6.65;;;;;;;3.00;69.65;100570.09;4273699;33;33436;-75
2022/01/14 01:17:44;;;;;;;17.85;7.78;;;;;;;2.93;69.35;100568.09;4261315;33;34863;-71
2022/01/14 01:20:17;;;;;;;15.27;5.65;;;;;;;2.44;71.66;100561.84;4297131;33;34380;-71
2022/01/14 01:22:48;;;;;;;23.52;7.10;;;;;;;2.53;71.56;100561.38;4302752;33;33911;-71
2022/01/14 01:25:20;;;;;;;12.35;6.45;;;;;;;2.70;70.77;100565.50;4313077;33;33960;-75
2022/01/14 01:27:50;;;;;;;19.83;6.55;;;;;;;2.40;72.17;100568.56;4312275;33;35225;-76
2022/01/14 01:32:59;;;;;;;24.67;8.35;;;;;;;3.31;68.54;100571.31;4310623;33;34732;-75
2022/01/14 01:35:28;;;;;;;22.80;8.90;;;;;;;3.23;67.85;100563.31;4318968;33;34390;-72
2022/01/14 01:37:56;;;;;;;18.50;7.47;;;;;;;3.34;67.63;100559.44;4317735;33;34706;-73
2022/01/14 01:40:25;;;;;;;22.23;7.90;;;;;;;3.11;67.58;100552.53;4318907;33;35346;-76
2022/01/14 01:42:56;;;;;;;14.20;6.82;;;;;;;2.88;68.33;100560.22;4299143;33;34576;-71
2022/01/14 01:45:26;;;;;;;24.23;9.32;;;;;;;3.06;67.26;100547.19;4303333;33;33094;-75
2022/01/14 01:47:54;;;;;;;15.77;8.02;;;;;;;3.56;65.79;100548.22;4290820;33;35178;-75
2022/01/14 01:50:25;;;;;;;28.98;8.30;;;;;;;2.56;68.49;100551.19;4304260;33;34423;-71
2022/01/14 01:52:54;;;;;;;18.67;7.65;;;;;;;2.60;69.01;100553.09;4294114;33;34401;-76
2022/01/14 01:55:22;;;;;;;19.58;8.60;;;;;;;3.07;67.05;100546.41;4312347;33;34032;-73
2022/01/14 01:57:52;;;;;;;26.58;9.43;;;;;;;3.04;66.84;100541.13;4302065;33;35947;-75
2022/01/14 02:00:23;;;;;;;29.85;9.70;;;;;;;2.84;67.34;100538.66;4290851;33;35289;-72
2022/01/14 02:02:53;;;;;;;37.15;9.38;;;;;;;3.33;65.70;100534.50;4307751;33;34596;-75
2022/01/14 02:05:22;;;;;;;12.82;6.90;;;;;;;3.27;65.72;100528.25;4304760;33;34051;-71
2022/01/14 02:07:51;;;;;;;16.85;6.55;;;;;;;2.89;66.44;100519.94;4303945;33;35870;-75
2022/01/14 02:10:19;;;;;;;19.75;7.22;;;;;;;3.40;64.88;100515.00;4307348;33;34638;-75
2022/01/14 02:12:51;;;;;;;16.20;8.23;;;;;;;2.84;66.68;100517.16;4317548;33;33962;-72
2022/01/14 02:15:41;;;;;;;17.45;8.23;;;;;;;2.64;67.36;100503.53;4295794;33;33084;-75
2022/01/14 02:23:29;;;;;;;21.90;8.35;;;;;;;2.07;69.69;100498.63;4306979;33;33810;-75
2022/01/14 02:25:57;;;;;;;15.18;7.53;;;;;;;1.74;72.18;100490.38;4308747;33;33201;-72
2022/01/14 02:28:25;;;;;;;21.70;7.70;;;;;;;2.31;70.18;100483.34;4316247;33;35901;-71
2022/01/14 02:30:53;;;;;;;24.40;8.18;;;;;;;2.34;69.35;100487.75;4298266;33;34469;-75
2022/01/14 02:33:21;;;;;;;19.00;7.95;;;;;;;2.70;68.80;100488.34;4322320;33;33805;-72
2022/01/14 02:35:50;;;;;;;19.58;8.65;;;;;;;2.67;68.73;100483.09;4322264;33;34567;-75
2022/01/14 02:38:19;;;;;;;20.77;8.18;;;;;;;2.41;69.02;100477.75;4321916;33;35092;-75
2022/01/14 02:40:48;;;;;;;14.45;6.82;;;;;;;2.53;68.08;100473.94;4322967;33;34419;-71
2022/01/14 02:43:17;;;;;;;18.52;7.72;;;;;;;2.79;67.68;100480.13;4321904;33;34440;-71
2022/01/14 02:45:50;;;;;;;12.13;6.35;;;;;;;2.58;68.09;100472.44;4310147;33;34056;-72
2022/01/14 02:48:24;;;;;;;25.55;8.55;;;;;;;2.59;68.19;100469.03;4306435;33;35039;-72
2022/01/14 02:51:29;;;;;;;17.77;8.32;;;;;;;2.51;68.44;100465.31;4295531;33;35143;-76
2022/01/14 02:54:10;;;;;;;23.83;8.77;;;;;;;2.45;69.02;100459.09;4315766;33;34291;-75
2022/01/14 02:56:43;;;;;;;27.90;9.27;;;;;;;2.46;69.20;100467.69;4322809;33;33913;-75
2022/01/14 02:59:11;;;;;;;24.02;7.20;;;;;;;1.98;70.16;100463.16;4306264;33;35957;-75
2022/01/14 03:01:40;;;;;;;14.15;6.20;;;;;;;2.18;69.42;100461.41;4307980;33;34493;-73
2022/01/14 03:04:08;;;;;;;17.65;7.43;;;;;;;2.04;69.50;100453.13;4322114;33;34524;-71
2022/01/14 03:06:36;;;;;;;22.92;8.60;;;;;;;2.42;67.95;100451.25;4322836;33;33953;-71
2022/01/14 03:09:04;;;;;;;22.77;8.70;;;;;;;2.32;68.79;100441.41;4321895;33;35778;-71
2022/01/14 03:11:41;;;;;;;22.77;8.10;;;;;;;2.23;69.79;100448.75;4314457;33;34551;-71
2022/01/14 03:14:10;;;;;;;18.15;7.80;;;;;;;2.25;70.87;100444.56;4318728;33;34568;-74
2022/01/14 03:16:40;;;;;;;17.62;7.15;;;;;;;2.44;70.76;100439.34;4309476;33;34884;-71
2022/01/14 03:19:19;;;;;;;23.83;7.82;;;;;;;2.83;68.90;100428.84;4297888;33;35301;-75
2022/01/14 03:21:49;;;;;;;20.67;7.37;;;;;;;2.25;70.02;100427.44;4283745;33;34764;-72
2022/01/14 03:24:23;;;;;;;18.08;7.82;;;;;;;1.88;73.21;100430.19;4291827;33;33803;-71
2022/01/14 03:26:52;;;;;;;17.35;8.00;;;;;;;2.02;73.20;100426.50;4292745;33;33986;-71
2022/01/14 03:29:20;;;;;;;18.77;6.87;;;;;;;1.66;74.95;100423.25;4304805;33;35085;-72
2022/01/14 03:31:48;;;;;;;24.58;8.63;;;;;;;1.85;74.53;100422.34;4305308;33;34420;-71
2022/01/14 03:34:15;;;;;;;18.23;7.43;;;;;;;1.66;74.75;100424.16;4287784;33;33077;-72
2022/01/14 03:36:43;;;;;;;21.95;8.27;;;;;;;2.27;73.46;100419.78;4305255;33;34036;-73
2022/01/14 03:39:17;;;;;;;26.33;10.00;;;;;;;2.80;70.92;100415.84;4303465;33;35148;-75
2022/01/14 03:41:46;;;;;;;16.48;8.38;;;;;;;2.35;72.17;100413.28;4305866;33;34544;-76
2022/01/14 03:44:14;;;;;;;17.65;6.95;;;;;;;1.70;74.86;100420.91;4305542;33;34599;-76
2022/01/14 03:46:43;;;;;;;12.77;6.05;;;;;;;1.58;76.18;100415.25;4303288;33;33692;-76
2022/01/14 03:49:12;;;;;;;24.58;7.60;;;;;;;1.83;75.19;100413.72;4315212;33;36126;-72
2022/01/14 03:51:42;;;;;;;21.12;8.32;;;;;;;2.33;73.05;100409.78;4319718;33;34230;-75
2022/01/14 03:54:10;;;;;;;18.62;7.30;;;;;;;2.46;72.72;100404.28;4309343;33;34312;-75
2022/01/14 03:56:38;;;;;;;21.33;8.15;;;;;;;2.29;73.40;100397.59;4319625;33;33810;-76
2022/01/14 03:59:06;;;;;;;16.15;6.93;;;;;;;1.89;73.97;100398.56;4309098;33;34941;-73
2022/01/14 04:01:33;;;;;;;15.68;7.43;;;;;;;1.93;74.91;100405.59;4305146;33;34504;-75
2022/01/14 04:04:02;;;;;;;24.87;8.88;;;;;;;1.60;75.68;100402.47;4298206;33;33586;-72
2022/01/14 04:06:30;;;;;;;13.00;6.70;;;;;;;1.90;73.98;100393.47;4304740;33;33925;-70
2022/01/14 04:08:58;;;;;;;25.17;8.57;;;;;;;1.78;73.85;100395.53;4309633;33;35005;-75
2022/01/14 04:11:28;;;;;;;29.52;8.40;;;;;;;2.26;72.20;100400.94;4289336;33;35346;-76
2022/01/14 04:14:07;;;;;;;16.05;8.05;;;;;;;1.49;74.53;100410.59;4298172;33;33825;-72
2022/01/14 04:16:36;;;;;;;20.23;8.10;;;;;;;1.12;76.80;100403.00;4304119;33;33953;-74
2022/01/14 04:19:04;;;;;;;17.40;7.65;;;;;;;1.84;74.95;100397.50;4303624;33;35860;-76
2022/01/14 04:21:32;;;;;;;22.50;8.27;;;;;;;1.66;75.42;100403.63;4304139;33;34429;-71
2022/01/14 04:24:00;;;;;;;14.63;7.20;;;;;;;1.71;74.34;100390.97;4303944;33;33777;-75
2022/01/14 04:26:28;;;;;;;22.35;8.90;;;;;;;1.32;75.64;100386.78;4305022;33;34012;-71
2022/01/14 04:28:56;;;;;;;30.77;8.95;;;;;;;1.63;75.34;100372.69;4303909;33;35908;-73
2022/01/14 04:31:24;;;;;;;19.02;7.82;;;;;;;2.01;73.33;100364.78;4304927;33;34296;-75
2022/01/14 04:33:52;;;;;;;15.82;6.45;;;;;;;2.02;72.89;100367.41;4300307;33;32990;-71
2022/01/14 04:36:19;;;;;;;19.45;8.80;;;;;;;2.14;71.80;100372.19;4283364;33;236845;-76
2022/01/14 04:38:48;;;;;;;22.33;9.15;;;;;;;2.06;71.33;100376.13;4297656;33;35022;-75
2022/01/14 04:41:16;;;;;;;15.02;6.43;;;;;;;2.31;71.25;100371.97;4304816;33;35530;-72
2022/01/14 04:43:44;;;;;;;33.20;11.00;;;;;;;1.63;73.73;100367.53;4292649;33;33721;-76
2022/01/14 04:48:40;;;;;;;28.45;9.88;;;;;;;2.26;71.89;100367.53;4296316;33;34852;-75
2022/01/14 04:51:10;;;;;;;38.38;11.68;;;;;;;2.53;70.86;100360.84;4289360;33;35341;-74
2022/01/14 04:53:39;;;;;;;22.67;10.63;;;;;;;2.11;71.29;100358.34;4296005;33;32929;-76
2022/01/14 04:56:07;;;;;;;23.45;7.87;;;;;;;2.19;71.05;100354.34;4290365;33;34003;-72
2022/01/14 04:58:35;;;;;;;22.50;8.77;;;;;;;2.48;69.82;100342.66;4286086;33;35282;-71
2022/01/14 05:01:03;;;;;;;25.37;8.30;;;;;;;2.17;69.86;100335.44;4303694;33;35280;-73
2022/01/14 05:03:31;;;;;;;28.90;8.32;;;;;;;2.42;68.65;100340.72;4297419;33;32821;-70
2022/01/14 05:06:01;;;;;;;24.23;7.78;;;;;;;2.74;68.46;100338.47;4304799;33;33990;-75
2022/01/14 05:08:38;;;;;;;26.87;8.20;;;;;;;2.87;67.88;100341.50;4303121;33;35139;-73
2022/01/14 05:13:45;;;;;;;29.58;9.10;;;;;;;2.46;69.15;100344.28;4317553;33;33588;-75
2022/01/14 05:16:12;;;;;;;26.23;10.10;;;;;;;2.11;71.44;100337.78;4319154;33;34778;-74
2022/01/14 05:18:40;;;;;;;28.48;9.73;;;;;;;2.05;71.54;100338.44;4304635;33;34445;-74
2022/01/14 05:21:09;;;;;;;31.75;10.18;;;;;;;1.91;72.52;100330.16;4305989;33;35251;-75
2022/01/14 05:23:36;;;;;;;16.75;7.37;;;;;;;1.45;74.83;100331.72;4317613;33;33534;-74
2022/01/14 05:26:04;;;;;;;14.20;7.12;;;;;;;1.40;74.77;100337.47;4318725;33;34821;-72
2022/01/14 05:28:32;;;;;;;25.25;10.48;;;;;;;1.84;73.28;100339.31;4314756;33;35992;-74
2022/01/14 05:31:00;;;;;;;15.40;7.82;;;;;;;1.59;73.53;100327.16;4318808;33;34404;-71
2022/01/14 05:33:28;;;;;;;35.33;12.27;;;;;;;1.17;75.56;100334.81;4304507;33;34606;-74
2022/01/14 05:35:56;;;;;;;21.77;8.07;;;;;;;2.09;72.35;100330.88;4317997;33;34842;-70
2022/01/14 05:38:24;;;;;;;20.83;8.70;;;;;;;1.40;74.58;100322.94;4317542;33;35674;-74
2022/01/14 05:40:52;;;;;;;16.08;7.78;;;;;;;1.64;74.33;100324.78;4317769;33;34484;-71
2022/01/14 05:43:20;;;;;;;21.02;9.18;;;;;;;1.21;76.50;100321.28;4317395;33;33741;-71
2022/01/14 05:45:48;;;;;;;24.98;9.45;;;;;;;1.25;76.29;100323.19;4317821;33;34503;-70
2022/01/14 05:48:16;;;;;;;19.45;6.55;;;;;;;0.74;78.27;100318.44;4317460;33;35833;-74
2022/01/14 05:50:44;;;;;;;14.98;7.00;;;;;;;1.06;77.06;100315.50;4305349;33;33819;-69
2022/01/14 05:53:12;;;;;;;16.08;7.28;;;;;;;0.70;78.29;100315.66;4317375;33;34576;-70
2022/01/14 05:55:40;;;;;;;17.50;6.00;;;;;;;0.24;80.90;100313.56;4317589;33;34015;-71
2022/01/14 05:58:08;;;;;;;25.62;10.35;;;;;;;0.96;79.12;100313.38;4304499;33;35113;-71
2022/01/14 06:00:36;;;;;;;28.17;8.30;;;;;;;1.13;77.93;100320.97;4318409;33;34389;-70
2022/01/14 06:03:04;;;;;;;17.37;7.60;;;;;;;0.44;79.95;100323.06;4292747;33;34612;-70
2022/01/14 06:05:33;;;;;;;17.20;7.37;;;;;;;0.62;80.20;100322.09;4318157;33;34035;-73
2022/01/14 06:08:01;;;;;;;28.55;10.07;;;;;;;0.69;79.61;100319.91;4311577;33;35353;-74
2022/01/14 06:10:29;;;;;;;31.98;8.88;;;;;;;0.94;78.68;100321.87;4318379;33;35400;-74
2022/01/14 06:12:57;;;;;;;28.62;8.07;;;;;;;1.11;77.84;100320.03;4315963;33;34507;-71
2022/01/14 06:15:25;;;;;;;103.85;49.08;;;;;;;1.88;74.34;100317.19;4318610;33;33853;-75
2022/01/14 06:17:53;;;;;;;46.13;24.05;;;;;;;1.62;75.40;100317.00;4317308;33;35148;-69
2022/01/14 06:20:23;;;;;;;26.52;11.12;;;;;;;1.85;74.62;100309.34;4318503;33;34538;-71
2022/01/14 06:22:51;;;;;;;29.75;11.20;;;;;;;2.13;73.09;100310.47;4314783;33;33579;-70
2022/01/14 06:25:20;;;;;;;22.95;11.20;;;;;;;1.69;74.36;100305.31;4304022;33;33829;-74
2022/01/14 06:27:47;;;;;;;51.03;23.52;;;;;;;1.56;74.21;100298.81;4292004;33;34837;-70
2022/01/14 06:30:21;;;;;;;74.70;32.58;;;;;;;1.73;73.96;100301.16;4317230;33;35754;-70
2022/01/14 06:32:53;;;;;;;35.70;13.50;;;;;;;1.80;73.34;100296.34;4304411;33;34728;-74
2022/01/14 06:35:22;;;;;;;16.33;8.30;;;;;;;1.75;73.41;100304.66;4318241;33;33907;-70
2022/01/14 06:37:50;;;;;;;28.05;13.85;;;;;;;1.88;72.15;100307.78;4317161;33;35111;-74
2022/01/14 06:40:18;;;;;;;55.47;26.70;;;;;;;1.55;73.41;100315.00;4318106;33;34479;-72
2022/01/14 06:42:50;;;;;;;39.22;18.67;;;;;;;1.97;72.04;100303.84;4317124;33;33901;-74
2022/01/14 06:45:19;;;;;;;18.50;7.87;;;;;;;1.80;73.63;100303.16;4318010;33;34012;-71
2022/01/14 06:47:47;;;;;;;21.23;8.98;;;;;;;1.85;73.32;100297.41;4315908;33;36003;-70
2022/01/14 06:50:15;;;;;;;17.95;7.45;;;;;;;1.48;75.46;100295.03;4318080;33;34389;-70
2022/01/14 06:52:43;;;;;;;26.42;9.45;;;;;;;1.55;75.23;100296.16;4303826;33;34496;-70
2022/01/14 06:55:11;;;;;;;23.05;9.50;;;;;;;1.07;77.38;100307.00;4304895;33;33883;-70
2022/01/14 06:57:40;;;;;;;20.73;8.32;;;;;;;1.30;77.44;100298.59;4317700;33;35494;-70
2022/01/14 07:00:16;;;;;;;20.42;8.85;;;;;;;1.43;76.52;100305.13;4292334;33;34015;-69
2022/01/14 07:02:44;;;;;;;21.37;9.00;;;;;;;1.73;75.54;100309.75;4308256;33;33738;-70
2022/01/14 07:05:12;;;;;;;24.37;8.93;;;;;;;2.03;73.75;100307.53;4306951;33;33788;-70
2022/01/14 07:07:41;;;;;;;27.58;8.30;;;;;;;1.68;75.79;100299.31;4305750;33;35027;-70
2022/01/14 07:10:13;;;;;;;31.23;11.63;;;;;;;1.67;77.13;100305.22;4305507;33;34567;-70
2022/01/14 07:12:43;;;;;;;24.75;11.68;;;;;;;1.98;76.37;100305.59;4290337;33;33664;-70
2022/01/14 07:15:13;;;;;;;18.00;10.25;;;;;;;3.09;73.21;100297.72;4295017;33;34207;-71
2022/01/14 07:17:42;;;;;;;38.85;13.88;;;;;;;3.79;70.24;100293.16;4289191;33;34375;-71
2022/01/14 07:20:13;;;;;;;21.77;9.82;;;;;;;3.91;68.78;100298.69;4291342;33;34466;-71
2022/01/14 07:22:43;;;;;;;28.23;12.30;;;;;;;3.96;68.74;100291.13;4303809;33;34567;-71
2022/01/14 07:25:17;;;;;;;24.27;13.48;;;;;;;3.60;69.15;100287.41;4291900;33;34815;-71
2022/01/14 07:27:45;;;;;;;29.50;14.10;;;;;;;3.77;68.72;100285.38;4304313;33;35732;-70
2022/01/14 07:30:15;;;;;;;20.92;10.88;;;;;;;3.61;68.97;100283.12;4289616;33;34604;-71
2022/01/14 07:32:44;;;;;;;18.98;8.13;;;;;;;4.23;68.47;100290.22;4289423;33;33504;-70
2022/01/14 07:35:12;;;;;;;26.27;14.02;;;;;;;4.15;67.85;100284.84;4289495;33;34539;-71
2022/01/14 07:37:40;;;;;;;21.87;10.15;;;;;;;3.76;69.92;100277.63;4292003;33;34774;-70
2022/01/14 07:40:09;;;;;;;20.70;9.50;;;;;;;3.66;69.48;100283.28;4304258;33;32854;-70
2022/01/14 07:42:38;;;;;;;18.48;8.15;;;;;;;3.90;69.50;100284.06;4304175;33;33813;-70
2022/01/14 07:45:06;;;;;;;23.00;8.45;;;;;;;3.65;70.08;100284.09;4304287;33;34810;-71
2022/01/14 07:47:33;;;;;;;18.83;7.12;;;;;;;3.35;71.69;100290.88;4304063;33;35579;-70
2022/01/14 07:50:03;;;;;;;13.15;6.40;;;;;;;3.99;70.15;100286.06;4290875;33;34406;-72
2022/01/14 07:52:30;;;;;;;16.17;7.10;;;;;;;4.26;69.43;100282.56;4296149;33;32213;-74
2022/01/14 07:54:58;;;;;;;16.48;7.32;;;;;;;4.17;69.15;100280.59;4303156;33;34069;-73
2022/01/14 07:57:27;;;;;;;19.80;6.55;;;;;;;4.53;67.84;100274.75;4304019;33;35254;-70
2022/01/14 07:59:54;;;;;;;14.10;7.07;;;;;;;4.39;68.80;100270.91;4303917;33;35329;-70
2022/01/14 08:02:22;;;;;;;13.35;5.90;;;;;;;5.17;66.10;100267.03;4305394;33;34585;-76
2022/01/14 08:04:51;;;;;;;17.40;6.45;;;;;;;4.88;66.79;100264.56;4299306;33;33657;-71
2022/01/14 08:07:22;;;;;;;15.30;5.75;;;;;;;5.01;66.03;100260.59;4295231;33;35236;-76
2022/01/14 08:09:53;;;;;;;14.87;5.07;;;;;;;5.06;65.83;100259.88;4303470;33;34498;-72
2022/01/14 08:12:21;;;;;;;22.65;6.30;;;;;;;5.64;63.92;100267.34;4317513;33;33805;-70
2022/01/14 08:14:49;;;;;;;17.00;6.20;;;;;;;5.85;63.13;100267.84;4319420;33;34016;-70
2022/01/14 08:17:20;;;;;;;18.20;7.18;;;;;;;5.09;65.88;100267.72;4319405;33;35027;-71
2022/01/14 08:19:49;;;;;;;15.30;7.18;;;;;;;5.97;62.91;100271.63;4308644;33;33785;-70
2022/01/14 08:22:17;;;;;;;15.38;6.93;;;;;;;5.81;62.80;100273.81;4304927;33;33594;-74
2022/01/14 08:24:45;;;;;;;21.02;9.27;;;;;;;6.11;61.19;100271.94;4314917;33;33920;-70
2022/01/14 08:27:13;;;;;;;18.23;8.38;;;;;;;5.83;62.05;100253.16;4319310;33;35267;-71
2022/01/14 08:29:41;;;;;;;16.10;6.28;;;;;;;6.36;60.92;100256.09;4318433;33;34577;-70
2022/01/14 08:32:09;;;;;;;13.25;5.75;;;;;;;6.29;61.01;100251.63;4318405;33;33747;-70
2022/01/14 08:34:37;;;;;;;12.70;5.95;;;;;;;6.02;61.74;100239.84;4318364;33;33849;-70
2022/01/14 08:37:06;;;;;;;16.95;6.68;;;;;;;5.40;63.37;100240.09;4319404;33;35022;-70
2022/01/14 08:39:34;;;;;;;17.33;7.30;;;;;;;5.49;63.52;100242.91;4318282;33;34519;-70
2022/01/14 08:42:04;;;;;;;19.87;6.32;;;;;;;5.78;62.78;100234.94;4306426;33;33842;-70
2022/01/14 08:44:32;;;;;;;17.27;7.03;;;;;;;6.25;61.55;100227.41;4303175;33;33049;-70
2022/01/14 08:47:00;;;;;;;14.02;6.93;;;;;;;5.97;62.08;100231.13;4291888;33;35182;-71
2022/01/14 08:49:28;;;;;;;11.77;5.35;;;;;;;6.36;60.99;100219.87;4308924;33;35368;-68
2022/01/14 08:51:57;;;;;;;12.07;5.37;;;;;;;7.05;59.45;100220.31;4319465;33;34579;-75
2022/01/14 08:54:25;;;;;;;15.35;7.62;;;;;;;7.16;59.01;100212.72;4317915;33;33879;-79
2022/01/14 08:56:53;;;;;;;15.57;6.55;;;;;;;7.48;57.67;100200.31;4319207;33;35106;-70
2022/01/14 08:59:21;;;;;;;13.57;6.57;;;;;;;8.38;55.21;100199.78;4302541;33;34511;-70
2022/01/14 09:01:49;;;;;;;19.87;5.70;;;;;;;8.20;54.73;100203.03;4303584;33;33216;-70
2022/01/14 09:04:18;;;;;;;14.35;5.93;;;;;;;8.62;53.89;100204.44;4305242;33;34853;-76
2022/01/14 09:06:46;;;;;;;12.05;5.05;;;;;;;8.93;53.23;100204.78;4319264;33;35205;-69
2022/01/14 09:09:15;;;;;;;12.57;5.45;;;;;;;8.43;54.62;100208.53;4315834;33;34586;-70
2022/01/14 09:11:43;;;;;;;12.98;4.85;;;;;;;9.35;51.99;100215.53;4304416;33;33801;-74
2022/01/14 09:14:11;;;;;;;12.07;5.07;;;;;;;9.86;50.19;100216.78;4294616;33;33728;-70
2022/01/14 09:16:39;;;;;;;16.35;5.85;;;;;;;9.38;51.27;100219.03;4291714;33;35019;-75
2022/01/14 09:19:07;;;;;;;16.75;6.47;;;;;;;8.43;54.45;100212.88;4304219;33;34583;-70
2022/01/14 09:21:35;;;;;;;14.07;5.00;;;;;;;8.56;54.66;100219.97;4303465;33;33804;-70
2022/01/14 09:24:03;;;;;;;17.87;4.90;;;;;;;8.50;54.18;100215.56;4304067;33;34086;-70
2022/01/14 09:26:35;;;;;;;7.87;3.67;;;;;;;8.26;55.44;100213.50;4303938;33;35135;-71
2022/01/14 09:29:05;;;;;;;10.43;5.10;;;;;;;7.68;56.40;100210.97;4309161;33;34744;-70
2022/01/14 09:31:33;;;;;;;7.87;3.40;;;;;;;8.89;53.33;100209.06;4319098;33;33435;-71
2022/01/14 09:34:02;;;;;;;21.77;6.28;;;;;;;8.50;53.40;100199.97;4317930;33;34115;-70
2022/01/14 09:36:30;;;;;;;10.63;3.97;;;;;;;8.31;53.37;100197.97;4319104;33;35836;-71
2022/01/14 09:38:58;;;;;;;12.10;4.12;;;;;;;7.72;55.52;100197.22;4317932;33;34641;-70
2022/01/14 09:41:26;;;;;;;7.93;3.28;;;;;;;7.42;56.49;100186.37;4318906;33;33794;-70
2022/01/14 09:43:55;;;;;;;7.45;3.58;;;;;;;7.77;55.06;100185.19;4302565;33;33902;-70
2022/01/14 09:46:24;;;;;;;8.07;3.55;;;;;;;8.08;54.53;100177.84;4291406;33;35920;-70
2022/01/14 09:48:52;;;;;;;10.80;3.92;;;;;;;8.76;52.68;100189.03;4303923;33;34598;-70
2022/01/14 09:51:21;;;;;;;13.68;3.80;;;;;;;9.02;51.50;100193.59;4304203;33;33934;-71
2022/01/14 09:53:49;;;;;;;9.57;3.45;;;;;;;8.74;52.51;100193.31;4306054;33;33903;-74
2022/01/14 09:56:18;;;;;;;10.52;4.18;;;;;;;8.49;53.28;100192.19;4302339;33;35697;-70
2022/01/14 09:58:48;;;;;;;14.98;4.32;;;;;;;8.76;52.52;100196.81;4292547;33;34006;-70
2022/01/14 10:01:18;;;;;;;12.20;4.53;;;;;;;8.73;52.09;100181.19;4304943;33;33832;-70
2022/01/14 10:03:55;;;;;;;10.07;3.75;;;;;;;9.66;50.12;100177.62;4304641;33;34572;-70
2022/01/14 10:06:39;;;;;;;9.43;3.83;;;;;;;9.72;49.14;100187.19;4305727;33;35011;-70
2022/01/14 10:09:35;;;;;;;8.75;3.60;;;;;;;9.93;49.11;100166.50;4317792;33;35366;-70
2022/01/14 10:12:05;;;;;;;10.67;3.97;;;;;;;10.31;47.95;100173.66;4317468;33;34471;-70
2022/01/14 10:14:36;;;;;;;19.77;5.45;;;;;;;11.19;45.53;100166.03;4316550;33;33668;-71
2022/01/14 10:17:08;;;;;;;8.23;3.60;;;;;;;11.79;44.27;100160.72;4296059;33;35061;-70
2022/01/14 10:19:41;;;;;;;8.38;4.50;;;;;;;11.70;43.58;100158.13;4301299;33;35070;-70
2022/01/14 10:22:21;;;;;;;10.50;4.37;;;;;;;12.31;42.56;100157.94;4304007;33;33571;-78
2022/01/14 10:24:59;;;;;;;11.15;3.90;;;;;;;12.32;42.45;100146.63;4310742;33;34790;-71
2022/01/14 10:27:33;;;;;;;9.88;3.45;;;;;;;12.38;41.55;100147.47;4318519;33;35027;-70
2022/01/14 10:30:15;;;;;;;12.68;4.47;;;;;;;11.39;43.59;100138.19;4309228;33;35111;-74
2022/01/14 10:32:46;;;;;;;8.75;3.62;;;;;;;12.36;42.15;100128.34;4304811;33;33676;-71
2022/01/14 10:35:17;;;;;;;7.50;3.70;;;;;;;10.82;44.88;100132.97;4299651;33;33856;-70
2022/01/14 10:37:46;;;;;;;12.75;4.10;;;;;;;12.69;41.04;100128.13;4320284;33;35146;-70
2022/01/14 10:40:19;;;;;;;9.75;4.05;;;;;;;11.87;41.72;100114.59;4303449;33;34675;-70
2022/01/14 10:42:50;;;;;;;9.10;3.95;;;;;;;11.40;43.24;100123.44;4305740;33;34506;-70
2022/01/14 10:45:38;;;;;;;17.42;5.07;;;;;;;11.83;42.57;100106.78;4316992;33;34856;-79
2022/01/14 10:48:08;;;;;;;12.65;5.10;;;;;;;11.15;43.28;100109.53;4307101;33;35151;-72
2022/01/14 10:50:46;;;;;;;14.07;6.78;;;;;;;11.83;43.04;100105.03;4303589;33;34552;-70
2022/01/14 10:53:17;;;;;;;32.80;15.63;;;;;;;11.57;43.33;100095.53;4296196;33;34546;-70
2022/01/14 10:55:50;;;;;;;18.60;8.27;;;;;;;11.86;41.99;100089.38;4302807;33;33989;-71
2022/01/14 10:58:27;;;;;;;7.32;3.12;;;;;;;12.07;42.42;100095.41;4307263;33;34982;-76
2022/01/14 11:01:01;;;;;;;11.95;4.35;;;;;;;11.43;43.03;100086.88;4305863;33;34313;-79
2022/01/14 11:03:38;;;;;;;10.93;4.12;;;;;;;11.46;42.89;100086.03;4306869;33;34607;-78
2022/01/14 11:06:24;;;;;;;9.35;3.53;;;;;;;11.14;44.20;100061.75;4301194;33;35219;-80
2022/01/14 11:09:00;;;;;;;12.57;4.12;;;;;;;11.90;42.41;100067.63;4316619;33;35065;-76
2022/01/14 11:11:32;;;;;;;7.90;3.53;;;;;;;11.34;43.51;100066.91;4319571;33;34704;-79
2022/01/14 11:14:01;;;;;;;8.20;3.47;;;;;;;11.61;42.89;100070.31;4318822;33;34499;-79
2022/01/14 11:16:30;;;;;;;10.35;4.22;;;;;;;11.60;43.07;100049.47;4306770;33;34040;-72
2022/01/14 11:19:01;;;;;;;7.93;3.42;;;;;;;11.27;44.09;100064.34;4293521;33;34519;-81
2022/01/14 11:24:23;;;;;;;6.78;3.05;;;;;;;11.80;42.86;100050.25;4317753;33;33663;-78
2022/01/14 11:26:56;;;;;;;5.53;2.50;;;;;;;11.11;44.22;100048.72;4294474;33;34225;-81
2022/01/14 11:29:31;;;;;;;9.63;4.10;;;;;;;11.77;42.92;100052.91;4303011;33;35073;-78
2022/01/14 11:32:03;;;;;;;7.13;3.20;;;;;;;10.82;44.63;100053.97;4316802;33;35463;-80
2022/01/14 11:34:34;;;;;;;9.27;4.53;;;;;;;11.17;44.00;100055.66;4319050;33;34342;-78
2022/01/14 11:37:07;;;;;;;10.40;4.28;;;;;;;11.55;43.38;100052.09;4319443;33;34014;-72
2022/01/14 11:39:37;;;;;;;14.82;4.60;;;;;;;10.94;44.67;100040.94;4317615;33;34920;-82
2022/01/14 11:42:12;;;;;;;10.65;4.00;;;;;;;10.45;45.48;100048.75;4306291;33;35327;-70
2022/01/14 11:44:41;;;;;;;10.65;4.18;;;;;;;10.78;44.96;100040.06;4302499;33;33384;-77
2022/01/14 11:47:41;;;;;;;8.50;3.90;;;;;;;10.45;45.44;100033.13;4318378;33;33766;-78
2022/01/14 11:50:18;;;;;;;10.93;3.97;;;;;;;10.75;45.43;100040.06;4302702;33;33574;-75
2022/01/14 11:52:48;;;;;;;10.63;4.32;;;;;;;10.75;45.90;100028.78;4291707;33;34070;-70
2022/01/14 11:55:19;;;;;;;12.93;5.35;;;;;;;10.74;45.94;100022.69;4299128;33;33669;-77
2022/01/14 11:57:52;;;;;;;11.82;4.43;;;;;;;10.99;45.08;100012.25;4318682;33;34243;-79
2022/01/14 12:00:26;;;;;;;14.60;5.62;;;;;;;10.95;45.14;100013.13;4304683;33;35134;-78
2022/01/14 12:02:59;;;;;;;13.40;4.32;;;;;;;11.27;44.91;100007.84;4319438;33;35272;-75
2022/01/14 12:05:29;;;;;;;15.00;5.32;;;;;;;11.32;44.54;100000.00;4305247;33;34539;-77
2022/01/14 12:08:07;;;;;;;10.77;4.22;;;;;;;10.73;46.19;99976.69;4319476;33;34389;-73